Weather observations for the past three days for
Middleton Island Airport
Metric (Imperial)
Date Time (akdt) Wind (kph) Vis. (km) Weather Sky Cond. Temperature (ºC) Relative Humidity Wind Chill (°C) Heat Index (°C) Pressure Precipitation (cm)
Air Dwpt 6 hour altimeter (cm) sea level (mb) 1 hr 3 hr 6 hr
Max. Min.
03 01:56 W 7 16.09 Fair CLR 12.2 9.4 83% 76.17 1015.5
03 00:56 W 15 16.09 Fair CLR 12.8 7.8 72% 76.12 1015.0
02 23:56 W 11 16.09 Fair CLR 12.8 8.9 77% 76.1 1014.7
02 22:56 W 15 16.09 Fair CLR 12.2 10 87% 76.07 1014.1
02 21:56 W 17 16.09 Fair CLR 12.2 10.6 15 11.7 90% 76.02 1013.5
02 20:56 W 17 16.09 Fair CLR 11.7 10 89% 75.97 1012.7
02 19:56 W 17 16.09 Fair CLR 13.3 10 81% 75.92 1012.3
02 18:56 W 9 16.09 Fair CLR 14.4 11.7 84% 75.87 1011.5
02 17:56 W 9 16.09 Fair CLR 15 11.7 81% 75.84 1011.0
02 16:56 W 15 16.09 Fair CLR 15 12.2 83% 75.79 1010.5
02 15:56 W 17 16.09 Fair CLR 15 12.2 15 12.2 83% 75.74 1010.0
02 14:56 W 15 16.09 Fair CLR 15 11.7 81% 75.69 1009.2
02 13:56 NW 11 16.09 Fair CLR 14.4 10.6 78% 75.64 1008.6
02 12:56 NW 11 16.09 Fair CLR 13.9 11.1 83% 75.62 1008.0
02 11:56 Vrbl 9 16.09 Fair CLR 13.9 10.6 81% 75.54 1007.1
02 09:56 N 6 16.09 A Few Clouds FEW002 12.2 12.2 12.2 10.6 100% 75.44 1005.8
02 08:56 NW 6 2.41 Fog/Mist FEW002 11.7 11.7 100% 75.41 1005.4
02 07:56 W 9 9.66 Fog/Mist CLR 11.1 11.1 100% 75.41 1005.3
02 06:56 W 15 14.48 Fair CLR 11.1 11.1 100% 75.39 1005.0
02 05:56 W 15 16.09 Fair CLR 11.1 11.1 100% 75.36 1004.7
02 04:56 W 13 16.09 Fair CLR 11.1 10.6 97% 75.34 1004.4
02 03:56 W 17 16.09 Fair CLR 11.1 10 11.1 10.6 93% 75.36 1004.7
02 02:56 W 15 16.09 Fair CLR 11.1 9.4 89% 75.39 1004.9
02 01:56 W 15 16.09 Fair CLR 11.1 10 93% 75.36 1004.8
02 00:56 W 15 16.09 Fair CLR 11.1 10 93% 75.36 1004.8
01 23:56 W 17 16.09 Fair CLR 11.1 10.6 97% 75.39 1004.9
01 22:56 SW 13 16.09 Fair CLR 11.1 10.6 97% 75.39 1004.9
01 21:56 W 17 16.09 Fair CLR 10.6 10 15 10.6 96% 75.34 1004.5
01 20:56 W 17 16.09 Fair CLR 11.1 10.6 97% 75.34 1004.5
01 19:56 W 11 16.09 Fair CLR 12.2 10.6 90% 75.34 1004.3
01 18:56 W 13 16.09 Fair CLR 13.3 11.1 87% 75.34 1004.5
01 17:56 W 19 16.09 Fair CLR 13.9 10.6 81% 75.34 1004.4
01 16:56 W 17 16.09 Fair CLR 14.4 10 75% 75.34 1004.4
01 15:56 W 19 16.09 Fair CLR 14.4 10 15 12.8 75% 75.31 1004.1
01 14:56 W 15 16.09 Fair CLR 14.4 10 75% 75.31 1004.2
01 13:56 W 13 16.09 Fair CLR 14.4 10.6 78% 75.34 1004.3
01 12:56 NW 15 16.09 Fair CLR 13.3 10 81% 75.31 1004.2
01 11:56 Vrbl 11 16.09 Fair CLR 13.3 10.6 84% 75.29 1003.9
01 10:56 N 11 16.09 Fair CLR 12.8 10.6 87% 75.29 1003.7
01 09:56 N 7 16.09 Fair CLR 12.8 10 12.8 10.6 83% 75.29 1003.6
01 08:56 N 13 16.09 Fair CLR 12.2 10 87% 75.26 1003.3
01 07:56 N 11 16.09 Fair CLR 11.7 10 89% 75.23 1003.2
01 06:56 NW 9 16.09 Fair CLR 11.1 10 93% 75.23 1002.9
01 05:56 NW 11 11.27 Fair CLR 11.1 10 93% 75.21 1002.6
01 04:56 N 7 16.09 Fair CLR 11.1 10 93% 75.16 1002.1
01 03:56 N 7 16.09 Fair CLR 11.1 9.4 12.2 11.1 89% 75.13 1001.6
01 02:56 N 9 12.87 Fair CLR 11.7 9.4 86% 75.11 1001.3
01 01:56 N 19 12.87 Fair CLR 11.7 8.3 80% 75.06 1000.7
01 00:56 N 19 16.09 Fair CLR 11.7 9.4 86% 75.01 999.9
31 23:56 N 22 G 31 16.09 Fair CLR 11.7 9.4 86% 74.96 999.2
31 22:56 N 26 G 37 16.09 Fair CLR 12.2 8.9 80% 74.85 998.0
31 21:56 N 31 16.09 Fair CLR 12.2 8.3 12.2 10 77% 74.78 997.0
31 20:56 N 33 G 43 16.09 Overcast and Breezy OVC055 12.2 7.8 75% 74.73 996.2
31 19:56 N 26 G 37 16.09 Mostly Cloudy BKN050 BKN070 11.7 8.3 80% 74.65 995.3
31 18:56 N 30 G 39 16.09 Light Rain FEW036 SCT044 OVC060 10.6 8.9 89% 74.63 994.9
31 17:56 N 24 G 44 16.09 Overcast BKN034 BKN043 OVC050 11.1 7.8 80% 74.57 994.1
31 16:56 N 31 G 44 16.09 A Few Clouds FEW016 11.7 8.9 83% 74.5 993.3
31 15:56 N 28 G 41 16.09 Mostly Cloudy FEW047 BKN060 BKN085 10 8.3 12.8 8.3 89% 7 74.47 992.8 0.15
31 14:56 N 24 G 33 16.09 Light Rain FEW013 BKN049 OVC065 8.9 7.8 93% 6 74.5 993.2 0.13
31 13:56 N 28 G 33 16.09 Light Rain FEW020 SCT039 OVC049 8.9 7.8 93% 6 74.52 993.6 0.03
31 12:56 W 33 G 44 16.09 Overcast and Breezy FEW019 BKN055 OVC075 11.7 8.9 83% 74.47 993.0
31 11:56 W 15 16.09 Overcast OVC100 12.8 10 83% 74.55 993.9
31 10:56 W 7 16.09 Overcast BKN065 OVC110 12.2 11.1 93% 74.65 995.2
31 09:56 Vrbl 6 16.09 Overcast BKN085 OVC110 12.8 12.2 12.8 11.1 96% 74.73 996.4
31 07:56 W 9 14.48 A Few Clouds FEW065 11.1 11.1 100% 74.88 998.3
31 06:56 W 9 14.48 Fair CLR 11.1 11.1 100% 74.9 998.7
31 05:56 NW 11 16.09 Fair CLR 11.1 11.1 100% 74.98 999.5
31 04:56 NW 7 14.48 Fair CLR 11.1 11.1 100% 75.01 999.9
Date Time (akdt) Wind (kph) Vis. (km) Weather Sky Cond. Air Dwpt Max. Min. Relative Humidity Wind Chill (°C) Heat Index (°C) altimeter (cm) sea level (mb) 1 hr 3 hr 6 hr
6 hour
Temperature (ºC) Pressure Precipitation (cm)